メインページ
METAR-TAF:

METAR-TAF

空港 :

スタンリー, フォークランド諸島

マウント・プレザント空軍基地

緯度: 51-49S, 経度: 058-27W, 海抜: 74m

現時点の気象観測

当レポートは10分前の05:50(UTC)に作成
北/北西の風 18kt
気温 13°C
湿度 94%
気圧 1006 hPa
視程10km以上
高度800ftの雲はほとんどない
高度12000ftの千切れ雲あり

METAR: EGYP 250550Z 33018KT 9999 FEW008 BKN120 13/12 Q1006 BLU

時間: 03:00 (06:00 UTC)

予報

当レポートは1時間40分前の04:20(UTC)に作成
予報は25日の 06時(UTC)から 25日の 24時(UTC)まで有効
北西の風 25kt、最大35ktの突風を伴う
視程10km以上
高度700ftの雲はほとんどない
確率 40% :
25日の 06時(UTC)から 25日の 12時(UTC)まで一時的に
視程: 4000m
高度700ftの千切れ雲あり
雨, 霧雨
25日の 07時(UTC)から 25日の 09時(UTC)まで徐々に
西/北西の風 15kt
25日の 12時(UTC)から 25日の 15時(UTC)まで徐々に
南/南西の風 8kt
確率 30% :
25日の 12時(UTC)から 25日の 18時(UTC)まで一時的に
高度1200ftの雲は散在している

TAF: EGYP 250420Z 2506/2524 31025G35KT 9999 FEW007 PROB40 TEMPO 2506/2512 4000 RADZ BKN007 BECMG 2507/2509 30015KT BECMG 2512/2515 21008KT PROB30 TEMPO 2512/2518 SCT012

4,000以上の空港の気象観測と天気予報(METAR報とTAF報)

利用可能な観測所は地図上に黄色い丸と赤い丸で示す。

丸の上にカーソルを重ねると観測所名を参照できる。

次にクリックすると気象観測と天気予報を参照できる。

マップの切り替え:黒色「×」印の緑ボタンをクリックして拡大、「-」印の緑ボタンをクリックして縮小、緑色の三角印をクリックして隣りの地図に切り替え


METAR-TAF: